createdAt,value
2023-01-23T00:00:50.190Z,100.37
2023-01-23T00:03:22.514Z,79.07
2023-01-23T00:05:59.842Z,60.83
2023-01-23T00:08:30.249Z,80.03
2023-01-23T00:10:59.940Z,53.60
2023-01-23T00:13:29.665Z,48.37
2023-01-23T00:15:59.323Z,55.03
2023-01-23T00:18:31.622Z,40.73
2023-01-23T00:21:01.344Z,42.80
2023-01-23T00:23:31.007Z,41.00
2023-01-23T00:26:05.366Z,42.00
2023-01-23T00:28:35.096Z,36.63
2023-01-23T00:31:08.627Z,44.27
2023-01-23T00:33:41.202Z,36.90
2023-01-23T00:36:11.942Z,42.20
2023-01-23T00:38:42.052Z,45.97
2023-01-23T00:41:12.617Z,42.50
2023-01-23T00:43:42.265Z,43.67
2023-01-23T00:46:13.421Z,39.57
2023-01-23T00:48:45.701Z,38.30
2023-01-23T00:51:15.371Z,44.27
2023-01-23T00:53:45.798Z,41.07
2023-01-23T00:56:15.541Z,44.23
2023-01-23T00:58:45.481Z,43.93
2023-01-23T01:01:15.905Z,45.07
2023-01-23T01:03:48.706Z,38.00
2023-01-23T01:06:18.584Z,39.17
2023-01-23T01:08:48.439Z,41.07
2023-01-23T01:11:19.220Z,36.07
2023-01-23T01:13:48.981Z,35.70
2023-01-23T01:16:19.147Z,33.87
2023-01-23T01:18:51.402Z,33.30
2023-01-23T01:21:21.724Z,33.97
2023-01-23T01:23:51.415Z,40.77
2023-01-23T01:26:23.076Z,34.00
2023-01-23T01:28:53.491Z,36.33
2023-01-23T01:31:23.164Z,32.77
2023-01-23T01:33:55.631Z,36.57
2023-01-23T01:36:27.156Z,32.13
2023-01-23T01:38:56.853Z,33.20
2023-01-23T01:41:28.056Z,36.80
2023-01-23T01:44:00.183Z,31.87
2023-01-23T01:46:32.805Z,32.90
2023-01-23T01:49:10.482Z,32.90
2023-01-23T01:51:45.187Z,28.10
2023-01-23T01:54:24.452Z,31.80
2023-01-23T01:56:58.207Z,34.67
2023-01-23T01:59:30.465Z,35.53
2023-01-23T02:02:06.000Z,39.87
2023-01-23T02:04:41.229Z,31.60
2023-01-23T02:07:17.475Z,36.07
2023-01-23T02:09:47.687Z,32.27
2023-01-23T02:12:17.365Z,32.23
2023-01-23T02:14:47.337Z,32.33
2023-01-23T02:17:17.675Z,28.93
2023-01-23T02:19:59.741Z,30.23
2023-01-23T02:22:38.466Z,34.97
2023-01-23T02:25:18.316Z,35.10
2023-01-23T02:27:51.281Z,35.27
2023-01-23T02:30:22.015Z,26.37
2023-01-23T02:32:53.659Z,27.57
2023-01-23T02:35:28.142Z,27.47
2023-01-23T02:38:06.840Z,53.23
2023-01-23T02:40:38.802Z,26.87
2023-01-23T02:43:19.132Z,27.23
2023-01-23T02:45:56.715Z,31.07
2023-01-23T02:48:27.204Z,31.43
2023-01-23T02:50:56.924Z,32.40
2023-01-23T02:53:27.583Z,32.20
2023-01-23T02:55:58.818Z,34.93
2023-01-23T02:58:43.654Z,27.77
2023-01-23T03:01:14.551Z,28.80
2023-01-23T03:03:44.372Z,29.47
2023-01-23T03:06:14.834Z,32.53
2023-01-23T03:08:47.811Z,23.07
2023-01-23T03:11:19.713Z,28.77
2023-01-23T03:13:51.964Z,24.43
2023-01-23T03:16:21.606Z,28.47
2023-01-23T03:18:54.820Z,28.57
2023-01-23T03:21:25.381Z,34.40
2023-01-23T03:23:55.087Z,33.20
2023-01-23T03:26:25.567Z,32.17
2023-01-23T03:29:10.415Z,29.60
2023-01-23T03:31:40.102Z,30.37
2023-01-23T03:34:10.083Z,27.27
2023-01-23T03:36:41.280Z,37.10
2023-01-23T03:39:23.656Z,28.20
2023-01-23T03:41:53.788Z,30.23
2023-01-23T03:44:27.534Z,30.47
2023-01-23T03:46:57.242Z,30.53
2023-01-23T03:49:27.007Z,31.10
2023-01-23T03:52:01.664Z,32.43
2023-01-23T03:54:32.277Z,32.33
2023-01-23T03:57:02.912Z,35.53
2023-01-23T04:00:01.080Z,30.40
2023-01-23T04:02:43.955Z,28.00
2023-01-23T04:05:16.394Z,34.80
2023-01-23T04:07:46.316Z,27.60
2023-01-23T04:10:17.096Z,31.50
2023-01-23T04:12:51.390Z,35.33
2023-01-23T04:15:24.291Z,30.00
2023-01-23T04:17:56.349Z,25.80
2023-01-23T04:20:27.954Z,31.63
2023-01-23T04:23:00.287Z,32.00
2023-01-23T04:25:31.395Z,30.07
2023-01-23T04:28:01.075Z,27.97
2023-01-23T04:30:33.494Z,31.63
2023-01-23T04:33:11.007Z,34.00
2023-01-23T04:35:41.726Z,31.30
2023-01-23T04:38:11.383Z,31.97
2023-01-23T04:40:41.185Z,40.87
2023-01-23T04:43:12.225Z,39.63
2023-01-23T04:45:52.552Z,43.33
2023-01-23T04:48:53.604Z,37.07
2023-01-23T04:51:25.440Z,45.13
2023-01-23T04:53:55.118Z,47.23
2023-01-23T04:56:25.617Z,49.20
2023-01-23T04:58:56.070Z,49.43
2023-01-23T05:01:29.358Z,45.10
2023-01-23T05:04:03.784Z,53.73
2023-01-23T05:06:33.589Z,60.90
2023-01-23T05:09:03.324Z,66.17
2023-01-23T05:11:41.073Z,61.23
2023-01-23T05:14:12.856Z,53.17
2023-01-23T05:16:46.739Z,62.13
2023-01-23T05:19:31.796Z,60.87
2023-01-23T05:22:04.416Z,60.40
2023-01-23T05:24:34.368Z,51.60
2023-01-23T05:27:04.167Z,66.27
2023-01-23T05:29:36.412Z,60.27
2023-01-23T05:32:16.248Z,64.63
2023-01-23T05:34:46.090Z,60.90
2023-01-23T05:37:25.363Z,58.97
2023-01-23T05:39:58.349Z,70.33
2023-01-23T05:42:31.399Z,68.43
2023-01-23T05:45:34.823Z,77.50
2023-01-23T05:48:10.249Z,70.20
2023-01-23T05:50:40.232Z,71.47
2023-01-23T05:53:10.521Z,60.60
2023-01-23T05:55:41.673Z,75.20
2023-01-23T05:58:15.901Z,85.80
2023-01-23T06:01:04.968Z,81.20
2023-01-23T06:03:55.483Z,83.33
2023-01-23T06:06:38.417Z,82.40
2023-01-23T06:09:08.146Z,86.93
2023-01-23T06:11:37.823Z,87.40
2023-01-23T06:14:08.047Z,71.97
2023-01-23T06:16:37.693Z,72.37
2023-01-23T06:19:10.809Z,78.30
2023-01-23T06:21:40.923Z,76.87
2023-01-23T06:24:11.259Z,57.67
2023-01-23T06:26:41.425Z,59.33
2023-01-23T06:29:11.100Z,61.33
2023-01-23T06:31:41.647Z,63.70
2023-01-23T06:34:14.005Z,59.20
2023-01-23T06:36:54.323Z,65.07
2023-01-23T06:39:24.162Z,57.93
2023-01-23T06:41:54.975Z,61.93
2023-01-23T06:44:25.665Z,62.57
2023-01-23T06:46:56.788Z,59.80
2023-01-23T06:49:30.236Z,60.17
2023-01-23T06:52:00.507Z,61.40
2023-01-23T06:54:31.070Z,66.77
2023-01-23T06:57:04.415Z,60.97
2023-01-23T06:59:34.950Z,61.20
2023-01-23T07:02:07.240Z,59.27
2023-01-23T07:04:51.156Z,58.53
2023-01-23T07:07:21.072Z,57.23
2023-01-23T07:09:52.420Z,59.30
2023-01-23T07:12:26.034Z,64.87
2023-01-23T07:14:55.769Z,57.50
2023-01-23T07:17:30.583Z,53.07
2023-01-23T07:20:02.819Z,68.13
2023-01-23T07:22:32.525Z,68.20
2023-01-23T07:25:02.199Z,65.63
2023-01-23T07:27:33.220Z,66.60
2023-01-23T07:30:02.874Z,55.53
2023-01-23T07:32:32.559Z,66.07
2023-01-23T07:35:04.812Z,64.27
2023-01-23T07:37:34.470Z,65.13
2023-01-23T07:40:04.615Z,63.53
2023-01-23T07:42:34.281Z,59.70
2023-01-23T07:45:04.109Z,60.13
2023-01-23T07:47:33.872Z,63.93
2023-01-23T07:50:06.571Z,59.67
2023-01-23T07:52:36.450Z,60.70
2023-01-23T07:55:07.711Z,58.40
2023-01-23T07:57:37.423Z,62.47
2023-01-23T08:00:08.389Z,65.40
2023-01-23T08:02:42.503Z,65.67
2023-01-23T08:05:14.810Z,72.10
2023-01-23T08:07:44.467Z,67.20
2023-01-23T08:10:14.997Z,58.20
2023-01-23T08:12:44.621Z,66.50
2023-01-23T08:15:15.918Z,65.93
2023-01-23T08:17:45.543Z,72.77
2023-01-23T08:20:18.815Z,60.27
2023-01-23T08:22:50.053Z,79.63
2023-01-23T08:25:19.861Z,68.70
2023-01-23T08:27:49.565Z,71.30
2023-01-23T08:30:20.580Z,71.30
2023-01-23T08:32:50.484Z,85.83
2023-01-23T08:35:22.726Z,91.40
2023-01-23T08:37:52.406Z,89.30
2023-01-23T08:40:22.432Z,79.17
2023-01-23T08:42:52.243Z,63.33
2023-01-23T08:45:22.260Z,79.57
2023-01-23T08:47:51.885Z,72.07
2023-01-23T08:50:24.187Z,75.33
2023-01-23T08:52:53.905Z,70.33
2023-01-23T08:55:23.594Z,68.43
2023-01-23T08:57:53.524Z,71.50
2023-01-23T09:00:23.955Z,64.37
2023-01-23T09:02:53.825Z,65.70
2023-01-23T09:05:26.068Z,65.30
2023-01-23T09:07:56.951Z,57.60
2023-01-23T09:10:27.775Z,56.93
2023-01-23T09:12:58.724Z,58.10
2023-01-23T09:15:28.461Z,61.55
2023-01-23T09:17:58.092Z,68.57
2023-01-23T09:20:30.341Z,63.40
2023-01-23T09:23:00.068Z,70.03
2023-01-23T09:25:31.312Z,61.93
2023-01-23T09:28:01.085Z,66.37
2023-01-23T09:30:30.835Z,74.93
2023-01-23T09:33:00.530Z,59.70
2023-01-23T09:35:33.266Z,73.80
2023-01-23T09:38:04.990Z,67.83
2023-01-23T09:40:37.956Z,68.43
2023-01-23T09:43:16.000Z,58.70
2023-01-23T09:45:52.482Z,72.43
2023-01-23T09:48:29.610Z,62.10
2023-01-23T09:51:07.350Z,65.70
2023-01-23T09:53:40.155Z,77.80
2023-01-23T09:56:20.641Z,81.27
2023-01-23T09:59:01.058Z,71.43
2023-01-23T10:01:32.841Z,78.07
2023-01-23T10:04:03.941Z,74.93
2023-01-23T10:06:53.205Z,74.50
2023-01-23T10:09:44.126Z,75.00
2023-01-23T10:12:23.445Z,81.77
2023-01-23T10:15:16.778Z,82.90
2023-01-23T10:17:55.898Z,75.47
2023-01-23T10:20:41.394Z,92.23
2023-01-23T10:23:23.333Z,77.80
2023-01-23T10:25:53.382Z,92.87
2023-01-23T10:28:35.194Z,74.80
2023-01-23T10:31:10.263Z,81.20
2023-01-23T10:33:47.417Z,70.90
2023-01-23T10:36:26.239Z,61.30
2023-01-23T10:39:03.694Z,80.70
2023-01-23T10:41:33.389Z,64.53
2023-01-23T10:44:03.830Z,70.27
2023-01-23T10:46:37.746Z,72.93
2023-01-23T10:49:07.427Z,66.83
2023-01-23T10:51:49.157Z,68.97
2023-01-23T10:54:33.159Z,75.83
2023-01-23T10:57:04.934Z,63.70
2023-01-23T10:59:38.345Z,71.50
2023-01-23T11:02:23.576Z,70.70
2023-01-23T11:04:54.584Z,66.63
2023-01-23T11:07:25.837Z,69.80
2023-01-23T11:10:00.837Z,71.83
2023-01-23T11:12:32.230Z,77.20
2023-01-23T11:15:16.855Z,74.80
2023-01-23T11:17:46.830Z,81.67
2023-01-23T11:20:27.533Z,80.87
2023-01-23T11:23:05.279Z,73.10
2023-01-23T11:25:40.588Z,59.57
2023-01-23T11:28:25.717Z,62.70
2023-01-23T11:31:12.492Z,59.33
2023-01-23T11:33:47.905Z,60.43
2023-01-23T11:36:43.807Z,60.27
2023-01-23T11:39:21.456Z,59.97
2023-01-23T11:41:54.620Z,56.80
2023-01-23T11:44:28.233Z,57.03
2023-01-23T11:47:18.124Z,51.83
2023-01-23T11:50:19.006Z,50.10
2023-01-23T11:52:58.700Z,49.20
2023-01-23T11:55:54.100Z,53.33
2023-01-23T11:58:49.174Z,52.60
2023-01-23T12:01:25.602Z,53.87
2023-01-23T12:04:15.726Z,54.97
2023-01-23T12:06:57.495Z,57.50
2023-01-23T12:09:36.277Z,56.87
2023-01-23T12:12:13.634Z,57.47
2023-01-23T12:14:55.066Z,60.93
2023-01-23T12:17:38.502Z,61.80
2023-01-23T12:20:28.167Z,54.43
2023-01-23T12:23:17.713Z,57.80
2023-01-23T12:25:58.676Z,58.03
2023-01-23T12:28:47.889Z,59.70
2023-01-23T12:31:41.012Z,61.27
2023-01-23T12:34:30.347Z,60.03
2023-01-23T12:37:29.601Z,56.27
2023-01-23T12:40:08.623Z,58.80
2023-01-23T12:42:43.979Z,62.60
2023-01-23T12:45:23.182Z,61.37
2023-01-23T12:48:02.688Z,57.40
2023-01-23T12:50:42.186Z,61.10
2023-01-23T12:53:14.272Z,51.03
2023-01-23T12:55:52.109Z,55.60
2023-01-23T12:58:23.214Z,54.40
2023-01-23T13:01:06.949Z,52.23
2023-01-23T13:03:58.011Z,46.80
2023-01-23T13:06:38.102Z,47.13
2023-01-23T13:09:18.722Z,41.20
2023-01-23T13:11:59.217Z,46.00
2023-01-23T13:15:06.938Z,44.93
2023-01-23T13:17:40.945Z,44.63
2023-01-23T13:20:43.138Z,46.50
2023-01-23T13:23:27.957Z,48.00
2023-01-23T13:26:26.540Z,48.73
2023-01-23T13:28:57.459Z,43.80
2023-01-23T13:31:30.486Z,42.70
2023-01-23T13:34:14.549Z,44.40
2023-01-23T13:36:48.818Z,49.93
2023-01-23T13:39:31.151Z,49.50
2023-01-23T13:42:45.545Z,144.90
2023-01-23T13:45:33.652Z,60.73
2023-01-23T14:22:13.305Z,65.53
2023-01-23T14:24:47.003Z,59.77
2023-01-23T14:27:29.397Z,67.17
2023-01-23T14:30:01.204Z,66.70
2023-01-23T14:32:33.091Z,67.73
2023-01-23T14:35:05.259Z,61.03
2023-01-23T14:37:39.686Z,60.90
2023-01-23T14:40:26.447Z,60.23
2023-01-23T14:43:01.579Z,55.43
2023-01-23T14:45:33.623Z,59.50
2023-01-23T14:48:06.469Z,56.70
2023-01-23T14:50:39.813Z,58.67
2023-01-23T14:53:14.577Z,61.43
2023-01-23T14:55:49.827Z,57.77
2023-01-23T14:58:25.068Z,58.20
2023-01-23T15:00:56.625Z,58.03
2023-01-23T15:03:42.693Z,56.17
2023-01-23T15:06:18.404Z,58.87
2023-01-23T15:08:48.643Z,57.97
2023-01-23T15:11:19.464Z,51.33
2023-01-23T15:13:52.782Z,56.17
2023-01-23T15:16:25.400Z,49.90
2023-01-23T15:18:59.342Z,49.37
2023-01-23T15:21:37.612Z,50.07
2023-01-23T15:24:24.026Z,50.30
2023-01-23T15:27:06.269Z,46.77
2023-01-23T15:29:36.548Z,51.27
2023-01-23T15:32:18.085Z,57.47
2023-01-23T15:34:55.857Z,52.77
2023-01-23T15:37:30.515Z,53.47
2023-01-23T15:40:04.293Z,96.90
2023-01-23T15:42:36.221Z,48.40
2023-01-23T15:45:08.953Z,46.73
2023-01-23T15:47:38.678Z,45.73
2023-01-23T15:50:08.837Z,57.30
2023-01-23T15:52:52.113Z,51.67
2023-01-23T15:55:22.968Z,46.87
2023-01-23T15:57:53.556Z,47.13
2023-01-23T16:00:26.929Z,50.37
2023-01-23T16:02:58.170Z,48.00
2023-01-23T16:05:31.137Z,40.63
2023-01-23T16:08:04.770Z,45.60
2023-01-23T16:10:39.156Z,44.23
2023-01-23T16:13:09.097Z,46.53
2023-01-23T16:15:40.032Z,46.63
2023-01-23T16:18:09.928Z,41.43
2023-01-23T16:20:42.075Z,47.37
2023-01-23T16:23:21.288Z,44.60
2023-01-23T16:25:52.001Z,41.80
2023-01-23T16:28:25.955Z,44.90
2023-01-23T16:30:55.965Z,52.00
2023-01-23T16:33:25.638Z,47.50
2023-01-23T16:35:55.545Z,46.03
2023-01-23T16:38:30.419Z,43.73
2023-01-23T16:41:01.924Z,43.40
2023-01-23T16:43:31.552Z,51.57
2023-01-23T16:46:02.411Z,50.73
2023-01-23T16:48:32.234Z,50.37
2023-01-23T16:51:08.274Z,51.37
2023-01-23T16:53:43.913Z,53.53
2023-01-23T16:56:21.951Z,46.10
2023-01-23T16:58:52.706Z,50.10
2023-01-23T17:01:25.082Z,48.87
2023-01-23T17:03:58.923Z,50.03
2023-01-23T17:06:28.971Z,50.43
2023-01-23T17:09:01.749Z,65.27
2023-01-23T17:11:36.810Z,46.03
2023-01-23T17:14:11.119Z,45.40
2023-01-23T17:16:41.199Z,50.00
2023-01-23T17:19:17.678Z,52.00
2023-01-23T17:21:47.874Z,48.87
2023-01-23T17:24:20.813Z,49.77
2023-01-23T17:26:50.696Z,48.97
2023-01-23T17:29:20.822Z,40.10
2023-01-23T17:31:52.444Z,46.53
2023-01-23T17:34:25.617Z,49.33
2023-01-23T17:36:57.083Z,53.63
2023-01-23T17:39:29.762Z,48.90
2023-01-23T17:41:59.357Z,44.20
2023-01-23T17:44:28.965Z,46.83
2023-01-23T17:46:58.928Z,47.10
2023-01-23T17:49:31.610Z,43.67
2023-01-23T17:52:02.747Z,46.47
2023-01-23T17:54:35.357Z,57.13
2023-01-23T17:57:05.208Z,51.30
2023-01-23T17:59:34.848Z,46.07
2023-01-23T18:02:04.572Z,46.60
2023-01-23T18:04:34.332Z,55.17
2023-01-23T18:07:03.995Z,44.43
2023-01-23T18:09:36.550Z,51.93
2023-01-23T18:12:07.927Z,47.97
2023-01-23T18:14:44.802Z,45.90
2023-01-23T18:17:32.770Z,52.40
2023-01-23T18:20:03.342Z,45.10
2023-01-23T18:22:33.755Z,43.93
2023-01-23T18:25:06.946Z,42.77
2023-01-23T18:27:43.723Z,49.40
2023-01-23T18:30:34.201Z,50.60
2023-01-23T18:33:34.584Z,51.27
2023-01-23T18:36:16.103Z,50.23
2023-01-23T18:39:04.689Z,52.60
2023-01-23T18:41:37.304Z,50.43
2023-01-23T18:44:15.557Z,48.10
2023-01-23T18:46:45.961Z,50.30
2023-01-23T18:49:27.721Z,48.83
2023-01-23T18:52:10.659Z,59.90
2023-01-23T18:54:46.198Z,57.03
2023-01-23T18:57:40.868Z,59.57
2023-01-23T19:00:20.033Z,56.77
2023-01-23T19:02:53.058Z,56.90
2023-01-23T19:05:30.843Z,54.23
2023-01-23T19:08:02.568Z,61.10
2023-01-23T19:10:47.613Z,54.50
2023-01-23T19:13:24.152Z,65.37
2023-01-23T19:16:04.456Z,60.13
2023-01-23T19:18:45.816Z,70.77
2023-01-23T19:21:23.688Z,59.63
2023-01-23T19:23:59.363Z,57.40
2023-01-23T19:26:32.154Z,60.63
2023-01-23T19:29:20.401Z,56.30
2023-01-23T19:32:04.005Z,54.43
2023-01-23T19:34:34.576Z,58.40
2023-01-23T19:37:04.866Z,56.90
2023-01-23T19:39:34.939Z,58.47
2023-01-23T19:42:04.671Z,56.93
2023-01-23T19:44:37.234Z,60.50
2023-01-23T19:47:07.423Z,59.30
2023-01-23T19:49:37.399Z,63.73
2023-01-23T19:52:07.674Z,61.23
2023-01-23T19:54:37.695Z,56.40
2023-01-23T19:57:07.660Z,53.03
2023-01-23T19:59:39.935Z,61.47
2023-01-23T20:02:20.131Z,54.70
2023-01-23T20:04:50.135Z,53.90
2023-01-23T20:07:20.129Z,55.63
2023-01-23T20:09:49.810Z,50.87
2023-01-23T20:12:19.636Z,58.53
2023-01-23T20:14:52.044Z,59.60
2023-01-23T20:17:22.073Z,52.20
2023-01-23T20:19:53.271Z,48.60
2023-01-23T20:22:23.043Z,49.53
2023-01-23T20:24:52.720Z,55.23
2023-01-23T20:27:22.403Z,51.43
2023-01-23T20:29:55.972Z,52.30
2023-01-23T20:32:25.626Z,56.60
2023-01-23T20:34:57.796Z,54.77
2023-01-23T20:37:27.758Z,56.27
2023-01-23T20:39:57.390Z,56.20
2023-01-23T20:42:27.382Z,51.97
2023-01-23T20:44:59.849Z,55.03
2023-01-23T20:47:29.453Z,56.33
2023-01-23T20:49:59.088Z,48.47
2023-01-23T20:52:46.883Z,52.37
2023-01-23T20:55:16.852Z,54.30
2023-01-23T20:57:59.260Z,49.93
2023-01-23T21:00:31.556Z,53.47
2023-01-23T21:03:01.514Z,60.90
2023-01-23T21:05:31.388Z,51.43
2023-01-23T21:08:01.396Z,55.87
2023-01-23T21:10:31.305Z,59.27
2023-01-23T21:13:00.908Z,57.73
2023-01-23T21:15:33.369Z,50.53
2023-01-23T21:18:03.402Z,54.20
2023-01-23T21:20:33.332Z,50.60
2023-01-23T21:23:02.991Z,51.07
2023-01-23T21:25:32.606Z,57.97
2023-01-23T21:28:02.232Z,53.10
2023-01-23T21:30:34.624Z,57.53
2023-01-23T21:33:04.273Z,48.90
2023-01-23T21:35:34.159Z,51.63
2023-01-23T21:38:03.855Z,52.43
2023-01-23T21:40:33.456Z,49.30
2023-01-23T21:43:03.140Z,55.83
2023-01-23T21:45:35.386Z,56.73
2023-01-23T21:48:05.049Z,55.33
2023-01-23T21:50:34.721Z,56.70
2023-01-23T21:53:04.390Z,51.77
2023-01-23T21:55:34.002Z,51.83
2023-01-23T21:58:03.603Z,50.70
2023-01-23T22:00:48.672Z,60.03
2023-01-23T22:03:18.272Z,53.10
2023-01-23T22:05:49.266Z,49.70
2023-01-23T22:08:18.889Z,49.90
2023-01-23T22:10:48.511Z,47.57
2023-01-23T22:13:18.177Z,49.83
2023-01-23T22:15:50.458Z,55.13
2023-01-23T22:18:20.167Z,49.67
2023-01-23T22:20:49.829Z,51.23
2023-01-23T22:23:19.421Z,49.20
2023-01-23T22:25:49.018Z,50.10
2023-01-23T22:28:18.935Z,46.40
2023-01-23T22:30:51.161Z,48.83
2023-01-23T22:33:22.498Z,50.60
2023-01-23T22:35:59.884Z,49.13
2023-01-23T22:38:32.050Z,52.47
2023-01-23T22:41:03.074Z,49.97
2023-01-23T22:43:32.827Z,51.53
2023-01-23T22:46:13.481Z,53.10
2023-01-23T22:48:43.543Z,50.83
2023-01-23T22:51:17.749Z,49.27
2023-01-23T22:53:47.751Z,49.73
2023-01-23T22:56:17.503Z,49.57
2023-01-23T22:58:47.949Z,51.27
2023-01-23T23:01:23.145Z,52.10
2023-01-23T23:03:54.066Z,51.47
2023-01-23T23:06:23.802Z,51.80
2023-01-23T23:08:53.400Z,52.40
2023-01-23T23:11:25.292Z,55.00
2023-01-23T23:13:55.541Z,53.53
2023-01-23T23:16:31.107Z,66.83
2023-01-23T23:19:02.822Z,58.10
2023-01-23T23:21:36.847Z,63.47
2023-01-23T23:24:09.016Z,57.93
2023-01-23T23:26:39.067Z,60.00
2023-01-23T23:29:09.107Z,57.43
2023-01-23T23:31:41.449Z,56.77
2023-01-23T23:34:11.489Z,56.20
2023-01-23T23:36:41.152Z,52.40
2023-01-23T23:39:10.969Z,61.27
2023-01-23T23:41:40.658Z,56.80
2023-01-23T23:44:10.390Z,58.63
2023-01-23T23:46:42.640Z,49.70
2023-01-23T23:49:12.380Z,53.37
2023-01-23T23:51:42.131Z,57.47
2023-01-23T23:54:11.791Z,52.43
2023-01-23T23:56:41.401Z,55.87
2023-01-23T23:59:16.542Z,56.07
